Time;durP1;ratioP1;P1;durP2;ratioP2;P2;SDS_P1;SDS_P2;PMS_P1;PMS_P2;Temp;Humidity;BMP_temperature;BMP_pressure;BME280_temperature;BME280_humidity;BME280_pressure;Samples;Min_cycle;Max_cycle;Signal;HPM_P1;HPM_P2
2022/12/17 13:06:05;;;;;;;;;;;;;;;17.33;34.64;101951.63;7252634;19;155682;-56
2022/12/17 13:08:31;;;;;;;;;;;;;;;17.38;34.46;101941.59;7252638;19;154076;-56
2022/12/17 13:11:08;;;;;;;;;;;;;;;17.40;34.68;101945.81;7263590;19;153186;-56
2022/12/17 13:13:38;;;;;;;;;;;;;;;17.42;34.72;101948.34;7255542;19;155865;-55
2022/12/17 13:16:29;;;;;;;;;;;;;;;17.45;34.43;101945.03;7254656;19;153467;-56
2022/12/17 13:19:00;;;;;;;;;;;;;;;17.46;34.49;101941.97;7256919;19;154317;-55
2022/12/17 13:21:28;;;;;;;;;;;;;;;17.48;34.43;101953.75;7252433;19;154383;-56
2022/12/17 13:23:55;;;;;;;;;;;;;;;17.50;34.35;101947.88;7256063;19;153604;-56
2022/12/17 13:26:24;;;;;;;;;;;;;;;17.51;34.47;101956.00;7254994;19;155527;-55
2022/12/17 13:28:53;;;;;;;;;;;;;;;17.52;34.31;101956.84;7254997;19;154448;-56
2022/12/17 13:31:24;;;;;;;;;;;;;;;17.52;34.27;101952.09;7254769;19;154608;-56
2022/12/17 13:33:50;;;;;;;;;;;;;;;17.54;34.35;101958.25;7263769;19;155269;-56
2022/12/17 13:36:23;;;;;;;;;;;;;;;17.54;34.07;101957.41;7254798;19;153190;-56
2022/12/17 13:38:54;;;;;;;;;;;;;;;17.55;34.22;101964.69;7254777;19;154689;-56
2022/12/17 13:41:26;;;;;;;;;;;;;;;17.54;34.20;101961.06;7255885;19;153689;-56
2022/12/17 13:43:57;;;;;;;;;;;;;;;17.54;34.36;101961.06;7256351;19;153591;-56
2022/12/17 13:46:28;;;;;;;;;;;;;;;17.54;34.32;101958.25;7255509;19;154567;-56
2022/12/17 13:49:00;;;;;;;;;;;;;;;17.53;34.24;101959.38;7255425;19;154826;-56
2022/12/17 13:51:28;;;;;;;;;;;;;;;17.54;34.07;101963.00;7251121;19;154404;-56
2022/12/17 13:53:58;;;;;;;;;;;;;;;17.52;34.40;101960.50;7252679;19;153931;-55
2022/12/17 13:56:27;;;;;;;;;;;;;;;17.52;34.33;101957.69;7260881;19;155040;-56
2022/12/17 13:58:54;;;;;;;;;;;;;;;17.52;34.06;101956.84;7251543;19;154678;-56
2022/12/17 14:01:21;;;;;;;;;;;;;;;17.48;34.34;101952.91;7252337;19;155940;-56
2022/12/17 14:03:50;;;;;;;;;;;;;;;17.47;34.47;101965.16;7254877;19;152431;-55
2022/12/17 14:06:35;;;;;;;;;;;;;;;17.44;34.42;101972.16;7251148;19;154095;-55
2022/12/17 14:09:02;;;;;;;;;;;;;;;17.42;34.07;101970.69;7250102;19;156488;-55
2022/12/17 14:14:39;;;;;;;;;;;;;;;17.37;34.52;101967.84;7254141;19;154312;-56
2022/12/17 14:17:13;;;;;;;;;;;;;;;17.35;34.26;101966.16;7251075;19;153979;-55
2022/12/17 14:19:40;;;;;;;;;;;;;;;17.33;34.19;101961.94;7262303;19;153271;-55
2022/12/17 14:22:09;;;;;;;;;;;;;;;17.31;34.38;101967.78;7249208;19;154062;-56
2022/12/17 14:24:37;;;;;;;;;;;;;;;17.30;34.22;101973.66;7254142;19;154617;-55
2022/12/17 14:27:04;;;;;;;;;;;;;;;17.29;34.53;101974.75;7253959;19;154235;-55
2022/12/17 14:29:31;;;;;;;;;;;;;;;17.26;34.27;101980.88;7253332;19;154139;-56
2022/12/17 14:32:02;;;;;;;;;;;;;;;17.25;34.57;101981.97;7254741;19;154146;-56
2022/12/17 14:34:39;;;;;;;;;;;;;;;17.22;34.39;101988.91;7253987;19;154184;-56
2022/12/17 14:37:14;;;;;;;;;;;;;;;17.20;34.30;101988.34;7249286;19;154301;-55
2022/12/17 14:39:43;;;;;;;;;;;;;;;17.19;34.38;101996.97;7260460;19;154335;-56
2022/12/17 14:42:28;;;;;;;;;;;;;;;17.16;34.39;101994.69;7251437;19;155431;-56
2022/12/17 14:45:00;;;;;;;;;;;;;;;17.13;34.63;102000.78;7253656;19;153759;-56
2022/12/17 14:47:28;;;;;;;;;;;;;;;17.11;34.50;101998.28;7252451;19;153995;-55
2022/12/17 14:49:54;;;;;;;;;;;;;;;17.09;34.36;101996.84;7250403;19;156866;-55
2022/12/17 14:52:24;;;;;;;;;;;;;;;17.06;34.64;101995.41;7252206;19;152106;-55
2022/12/17 14:54:51;;;;;;;;;;;;;;;17.05;34.70;101998.47;7251588;19;154740;-55
2022/12/17 14:57:19;;;;;;;;;;;;;;;17.01;34.32;101992.56;7253819;19;154192;-56
2022/12/17 14:59:46;;;;;;;;;;;;;;;16.99;34.34;101993.94;7251830;19;152660;-56
2022/12/17 15:02:13;;;;;;;;;;;;;;;16.98;34.57;101992.22;7258351;19;154311;-56
2022/12/17 15:04:40;;;;;;;;;;;;;;;16.96;34.65;102000.00;7250844;19;154785;-56
2022/12/17 15:07:06;;;;;;;;;;;;;;;16.94;34.47;101993.84;7249515;19;152687;-56
2022/12/17 15:09:40;;;;;;;;;;;;;;;16.92;34.75;101993.25;7249352;19;154305;-56
2022/12/17 15:12:08;;;;;;;;;;;;;;;16.90;34.71;101996.31;7251280;19;154029;-56
2022/12/17 15:14:34;;;;;;;;;;;;;;;16.87;34.40;102000.47;7252381;19;153330;-56
2022/12/17 15:17:01;;;;;;;;;;;;;;;16.84;34.57;102003.78;7249404;19;154832;-56
2022/12/17 15:19:28;;;;;;;;;;;;;;;16.83;34.80;102004.03;7253475;19;154297;-55
2022/12/17 15:21:55;;;;;;;;;;;;;;;16.81;34.96;102014.59;7249012;19;153687;-56
2022/12/17 15:24:21;;;;;;;;;;;;;;;16.78;34.70;102010.38;7258295;19;154285;-56
2022/12/17 15:26:48;;;;;;;;;;;;;;;16.77;34.61;102019.00;7253073;19;156202;-56
2022/12/17 15:29:15;;;;;;;;;;;;;;;16.74;34.62;102013.94;7250613;19;154631;-56
2022/12/17 15:31:42;;;;;;;;;;;;;;;16.73;34.93;102015.03;7250334;19;153543;-56
2022/12/17 15:34:10;;;;;;;;;;;;;;;16.69;34.80;102009.13;7251418;19;154491;-56
2022/12/17 15:36:37;;;;;;;;;;;;;;;16.68;34.65;102003.78;7247564;19;154457;-56
2022/12/17 15:39:07;;;;;;;;;;;;;;;16.66;34.70;101997.66;7250934;19;153872;-56
2022/12/17 15:44:19;;;;;;;;;;;;;;;16.61;34.99;101992.84;7250818;19;153665;-56
2022/12/17 15:46:46;;;;;;;;;;;;;;;16.59;35.13;101992.22;7258536;19;153033;-56
2022/12/17 15:49:12;;;;;;;;;;;;;;;16.56;34.87;101998.31;7249790;19;154192;-56
2022/12/17 15:51:39;;;;;;;;;;;;;;;16.55;34.82;101998.56;7245627;19;153285;-56
2022/12/17 15:54:06;;;;;;;;;;;;;;;16.53;34.96;102001.63;7251834;19;154655;-56
2022/12/17 15:56:33;;;;;;;;;;;;;;;16.50;35.11;101998.47;7249098;19;153412;-56
2022/12/17 15:59:00;;;;;;;;;;;;;;;16.50;34.83;101998.47;7250992;19;153422;-56
2022/12/17 16:01:27;;;;;;;;;;;;;;;16.46;35.20;101992.56;7253375;19;153456;-56
2022/12/17 16:03:54;;;;;;;;;;;;;;;16.44;35.32;101978.06;7248832;19;155181;-56
2022/12/17 16:06:21;;;;;;;;;;;;;;;16.41;35.12;101975.75;7248612;19;153609;-56
2022/12/17 16:08:48;;;;;;;;;;;;;;;16.39;34.98;101987.19;7252207;19;152428;-56
2022/12/17 16:11:15;;;;;;;;;;;;;;;16.36;35.45;101979.31;7249975;19;153228;-56
2022/12/17 16:13:42;;;;;;;;;;;;;;;16.34;35.18;101989.88;7252810;19;153499;-56
2022/12/17 16:16:09;;;;;;;;;;;;;;;16.32;35.31;101994.84;7261397;19;152219;-56
2022/12/17 16:18:37;;;;;;;;;;;;;;;16.30;35.03;101999.00;7265110;19;153339;-56
2022/12/17 16:21:06;;;;;;;;;;;;;;;16.29;35.30;102000.97;7261789;19;154207;-56
2022/12/17 16:23:33;;;;;;;;;;;;;;;16.26;35.28;102007.03;7262546;19;153407;-56
2022/12/17 16:26:01;;;;;;;;;;;;;;;16.23;35.55;102001.13;7263781;19;154375;-56
2022/12/17 16:28:28;;;;;;;;;;;;;;;16.21;35.39;102012.53;7263773;19;153529;-56
2022/12/17 16:30:56;;;;;;;;;;;;;;;16.18;35.21;102013.03;7269297;19;153720;-56
2022/12/17 16:33:23;;;;;;;;;;;;;;;16.15;35.50;102001.53;7263268;19;153600;-56
2022/12/17 16:35:51;;;;;;;;;;;;;;;16.14;35.57;102008.22;7258644;19;154070;-56
2022/12/17 16:38:18;;;;;;;;;;;;;;;16.13;35.52;102010.16;7262511;19;154234;-56
2022/12/17 16:40:45;;;;;;;;;;;;;;;16.11;35.52;102005.94;7261060;19;153935;-56
2022/12/17 16:43:12;;;;;;;;;;;;;;;16.09;35.32;102013.69;7260016;19;152528;-56
2022/12/17 16:45:45;;;;;;;;;;;;;;;16.06;35.62;102020.63;7264578;19;153549;-56
2022/12/17 16:48:12;;;;;;;;;;;;;;;16.03;35.36;102019.19;7263076;19;153699;-56
2022/12/17 16:50:39;;;;;;;;;;;;;;;16.01;35.84;102021.38;7269850;19;153956;-56
2022/12/17 16:53:06;;;;;;;;;;;;;;;16.00;35.77;102019.69;7260871;19;153564;-55
2022/12/17 16:55:38;;;;;;;;;;;;;;;15.99;35.71;102011.56;7263982;19;154785;-55
2022/12/17 16:58:05;;;;;;;;;;;;;;;16.00;35.59;102011.31;7262021;19;153274;-55
2022/12/17 17:00:33;;;;;;;;;;;;;;;16.02;35.75;102011.09;7264676;19;153932;-55
2022/12/17 17:03:00;;;;;;;;;;;;;;;16.02;35.52;102011.09;7260058;19;154141;-56
2022/12/17 17:05:30;;;;;;;;;;;;;;;16.04;35.91;102011.66;7262355;19;154333;-55
2022/12/17 17:07:57;;;;;;;;;;;;;;;16.07;36.12;102002.81;7259265;19;153392;-55
2022/12/17 17:10:24;;;;;;;;;;;;;;;16.13;35.91;102009.31;7261922;19;154370;-55
2022/12/17 17:12:51;;;;;;;;;;;;;;;16.19;36.15;102014.72;7267942;19;153229;-55
2022/12/17 17:15:19;;;;;;;;;;;;;;;16.24;36.01;102016.75;7258429;19;153620;-55
2022/12/17 17:17:46;;;;;;;;;;;;;;;16.29;35.85;102030.78;7259320;19;154146;-55
2022/12/17 17:20:21;;;;;;;;;;;;;;;16.32;35.84;102017.16;7262483;19;152807;-55
2022/12/17 17:22:48;;;;;;;;;;;;;;;16.36;35.81;102009.13;7257849;19;154163;-55
2022/12/17 17:25:15;;;;;;;;;;;;;;;16.39;36.08;102014.22;7263026;19;153326;-55
2022/12/17 17:27:42;;;;;;;;;;;;;;;16.42;36.06;102014.56;7254376;19;153609;-55
2022/12/17 17:30:10;;;;;;;;;;;;;;;16.45;35.70;102022.41;7255606;19;154854;-55
2022/12/17 17:32:36;;;;;;;;;;;;;;;16.48;35.77;102023.84;7256083;19;153816;-55
2022/12/17 17:35:04;;;;;;;;;;;;;;;16.52;35.56;102021.38;7260533;19;154483;-55
2022/12/17 17:37:31;;;;;;;;;;;;;;;16.54;35.50;102019.16;7252313;19;154057;-55
2022/12/17 17:39:58;;;;;;;;;;;;;;;16.55;35.35;102030.09;7255043;19;152934;-55
2022/12/17 17:42:25;;;;;;;;;;;;;;;16.57;35.51;102035.41;7253476;19;154153;-55
2022/12/17 17:44:52;;;;;;;;;;;;;;;16.59;35.63;102033.25;7254036;19;153333;-55
2022/12/17 17:47:19;;;;;;;;;;;;;;;16.60;35.40;102037.72;7253974;19;154151;-55
2022/12/17 17:49:46;;;;;;;;;;;;;;;16.61;35.34;102031.06;7254620;19;154180;-55
2022/12/17 17:52:12;;;;;;;;;;;;;;;16.61;35.09;102031.06;7253117;19;152173;-55
2022/12/17 17:54:39;;;;;;;;;;;;;;;16.60;35.18;102027.41;7251163;19;155522;-55
2022/12/17 17:57:07;;;;;;;;;;;;;;;16.62;35.47;102035.53;7260478;19;154170;-55
2022/12/17 17:59:34;;;;;;;;;;;;;;;16.61;35.19;102029.09;7253019;19;153810;-55
2022/12/17 18:02:01;;;;;;;;;;;;;;;16.61;35.11;102034.69;7252800;19;155440;-55
2022/12/17 18:04:29;;;;;;;;;;;;;;;16.60;35.01;102029.34;7251940;19;153970;-55
2022/12/17 18:06:56;;;;;;;;;;;;;;;16.60;35.21;102037.72;7250718;19;154630;-55
2022/12/17 18:09:43;;;;;;;;;;;;;;;16.60;35.08;102038.56;7252920;19;154368;-55
2022/12/17 18:14:40;;;;;;;;;;;;;;;16.58;35.05;102035.19;7253549;19;154678;-56
2022/12/17 18:17:23;;;;;;;;;;;;;;;16.59;34.99;102036.03;7253856;19;153757;-58
2022/12/17 18:19:50;;;;;;;;;;;;;;;16.58;34.97;102043.53;7260062;19;153258;-55
2022/12/17 18:22:17;;;;;;;;;;;;;;;16.58;35.08;102037.97;7252758;19;155049;-55
2022/12/17 18:24:44;;;;;;;;;;;;;;;16.58;35.29;102040.75;7252747;19;153382;-55
2022/12/17 18:27:11;;;;;;;;;;;;;;;16.58;35.23;102048.31;7253860;19;154737;-55
2022/12/17 18:29:38;;;;;;;;;;;;;;;16.58;35.06;102051.09;7251010;19;153849;-56
2022/12/17 18:32:04;;;;;;;;;;;;;;;16.55;34.96;102055.19;7249903;19;152390;-55
2022/12/17 18:34:34;;;;;;;;;;;;;;;16.54;35.08;102049.84;7254048;19;155363;-55
2022/12/17 18:37:01;;;;;;;;;;;;;;;16.53;34.76;102043.47;7246672;19;154412;-55
2022/12/17 18:39:28;;;;;;;;;;;;;;;16.51;34.99;102037.28;7248393;19;153762;-56
2022/12/17 18:44:26;;;;;;;;;;;;;;;16.49;35.08;102033.06;7252555;19;154351;-56
2022/12/17 18:46:52;;;;;;;;;;;;;;;16.48;34.77;102031.38;7250822;19;156153;-56
2022/12/17 18:49:21;;;;;;;;;;;;;;;16.46;35.13;102023.25;7252547;19;153097;-56
2022/12/17 18:51:48;;;;;;;;;;;;;;;16.45;34.69;102032.72;7249656;19;154079;-56
2022/12/17 18:54:17;;;;;;;;;;;;;;;16.46;34.84;102040.84;7250678;19;154202;-56
2022/12/17 18:56:44;;;;;;;;;;;;;;;16.47;34.71;102036.09;7250375;19;154759;-56
2022/12/17 18:59:28;;;;;;;;;;;;;;;16.50;34.85;102049.53;7252474;19;153764;-56
2022/12/17 19:01:55;;;;;;;;;;;;;;;16.51;34.68;102048.44;7256679;19;155171;-56
2022/12/17 19:04:23;;;;;;;;;;;;;;;16.56;34.98;102036.50;7249452;19;153830;-56
2022/12/17 19:06:52;;;;;;;;;;;;;;;16.59;34.78;102034.09;7248931;19;153603;-56
2022/12/17 19:09:22;;;;;;;;;;;;;;;16.62;35.05;102044.75;7251397;19;156582;-56
2022/12/17 19:11:49;;;;;;;;;;;;;;;16.65;34.69;102047.03;7250466;19;153670;-56
2022/12/17 19:14:17;;;;;;;;;;;;;;;16.68;35.25;102048.44;7252346;19;153049;-56
2022/12/17 19:16:44;;;;;;;;;;;;;;;16.71;34.87;102053.53;7252613;19;154827;-56
2022/12/17 19:19:11;;;;;;;;;;;;;;;16.74;34.83;102053.00;7251759;19;153652;-54
2022/12/17 19:21:39;;;;;;;;;;;;;;;16.77;34.65;102050.53;7249141;19;154548;-55
2022/12/17 19:24:07;;;;;;;;;;;;;;;16.79;35.02;102050.31;7255189;19;156008;-55
2022/12/17 19:26:34;;;;;;;;;;;;;;;16.82;34.58;102055.34;7251350;19;152993;-56
2022/12/17 19:29:02;;;;;;;;;;;;;;;16.84;34.57;102058.75;7250686;19;154297;-55
2022/12/17 19:31:30;;;;;;;;;;;;;;;16.85;34.94;102052.06;7251779;19;154224;-55
2022/12/17 19:33:58;;;;;;;;;;;;;;;16.87;34.83;102047.06;7250762;19;154123;-56
2022/12/17 19:36:26;;;;;;;;;;;;;;;16.89;34.37;102044.88;7245783;19;153790;-55
2022/12/17 19:38:55;;;;;;;;;;;;;;;16.92;34.79;102049.94;7251330;19;153588;-55
2022/12/17 19:41:23;;;;;;;;;;;;;;;16.94;34.44;102047.75;7250846;19;154314;-56
2022/12/17 19:43:53;;;;;;;;;;;;;;;16.95;34.51;102043.81;7246837;19;154446;-56
2022/12/17 19:46:20;;;;;;;;;;;;;;;16.97;34.28;102040.78;7258698;19;154220;-55
2022/12/17 19:48:47;;;;;;;;;;;;;;;16.97;34.28;102038.00;7247865;19;154530;-56
2022/12/17 19:51:16;;;;;;;;;;;;;;;16.98;34.06;102043.34;7245839;19;155223;-56
2022/12/17 19:53:43;;;;;;;;;;;;;;;17.01;34.29;102039.16;7248267;19;155394;-56
2022/12/17 19:56:11;;;;;;;;;;;;;;;16.99;34.18;102039.41;7250444;19;155333;-56
2022/12/17 19:58:39;;;;;;;;;;;;;;;16.99;34.26;102045.00;7249652;19;153619;-56
2022/12/17 20:01:09;;;;;;;;;;;;;;;17.00;34.33;102046.69;7251134;19;155094;-56
2022/12/17 20:03:37;;;;;;;;;;;;;;;17.00;34.06;102045.84;7247408;19;155707;-56
2022/12/17 20:06:04;;;;;;;;;;;;;;;17.00;33.98;102045.84;7248918;19;153114;-56
2022/12/17 20:08:32;;;;;;;;;;;;;;;17.00;34.03;102051.44;7253651;19;154927;-56
2022/12/17 20:10:59;;;;;;;;;;;;;;;16.99;34.35;102055.34;7248386;19;155026;-56
2022/12/17 20:13:26;;;;;;;;;;;;;;;16.98;34.00;102059.22;7248246;19;153644;-56
2022/12/17 20:15:56;;;;;;;;;;;;;;;16.96;34.38;102053.03;7249105;19;153650;-56
2022/12/17 20:18:23;;;;;;;;;;;;;;;16.92;34.49;102060.25;7250457;19;153319;-56
2022/12/17 20:20:50;;;;;;;;;;;;;;;16.92;34.26;102057.47;7245953;19;154175;-56
2022/12/17 20:23:20;;;;;;;;;;;;;;;16.90;34.31;102058.56;7249219;19;153331;-56
2022/12/17 20:25:46;;;;;;;;;;;;;;;16.89;34.30;102062.47;7245660;19;154886;-56
2022/12/17 20:28:13;;;;;;;;;;;;;;;16.90;34.58;102068.88;7252894;19;153332;-56
2022/12/17 20:30:40;;;;;;;;;;;;;;;16.89;34.69;102075.56;7254535;19;155438;-56
2022/12/17 20:33:07;;;;;;;;;;;;;;;16.88;34.65;102077.53;7250282;19;155772;-56
2022/12/17 20:35:37;;;;;;;;;;;;;;;16.87;34.38;102069.41;7244576;19;155723;-55
2022/12/17 20:38:04;;;;;;;;;;;;;;;16.86;34.43;102078.84;7246514;19;152634;-55
2022/12/17 20:40:32;;;;;;;;;;;;;;;16.84;34.19;102072.72;7249177;19;154773;-55
2022/12/17 20:42:59;;;;;;;;;;;;;;;16.82;34.46;102067.38;7247796;19;153996;-55
2022/12/17 20:45:26;;;;;;;;;;;;;;;16.81;34.54;102067.63;7247082;19;153087;-55
2022/12/17 20:47:53;;;;;;;;;;;;;;;16.83;34.34;102063.50;7248326;19;153634;-55
2022/12/17 20:50:20;;;;;;;;;;;;;;;16.84;34.34;102061.53;7247435;19;153214;-55
2022/12/17 20:52:47;;;;;;;;;;;;;;;16.86;34.60;102062.97;7258150;19;153849;-55
2022/12/17 20:55:14;;;;;;;;;;;;;;;16.89;34.34;102056.88;7247291;19;154301;-55
2022/12/17 20:57:42;;;;;;;;;;;;;;;16.91;34.56;102051.03;7248496;19;154743;-55
2022/12/17 21:00:10;;;;;;;;;;;;;;;16.94;34.43;102064.50;7246917;19;152824;-55
2022/12/17 21:02:37;;;;;;;;;;;;;;;16.96;34.70;102062.28;7251014;19;152862;-55
2022/12/17 21:05:04;;;;;;;;;;;;;;;16.97;34.84;102066.75;7249980;19;153740;-55
2022/12/17 21:07:31;;;;;;;;;;;;;;;17.00;34.74;102062.59;7251651;19;154726;-55
2022/12/17 21:09:58;;;;;;;;;;;;;;;17.02;34.48;102066.84;7251004;19;152645;-55
2022/12/17 21:13:27;;;;;;;;;;;;;;;17.05;34.75;102060.72;7262151;19;153336;-55
2022/12/17 21:15:12;;;;;;;;;;;;;;;17.08;34.43;102070.56;7255677;19;154546;-55
2022/12/17 21:17:39;;;;;;;;;;;;;;;17.11;34.59;102067.22;7255535;19;153997;-55
2022/12/17 21:20:06;;;;;;;;;;;;;;;17.12;34.51;102071.72;7255435;19;153974;-55
2022/12/17 21:22:37;;;;;;;;;;;;;;;17.15;34.50;102069.25;7254628;19;154176;-55
2022/12/17 21:25:04;;;;;;;;;;;;;;;17.16;34.38;102062.56;7253683;19;153932;-55
2022/12/17 21:27:31;;;;;;;;;;;;;;;17.18;34.20;102079.03;7253470;19;154720;-55
2022/12/17 21:29:57;;;;;;;;;;;;;;;17.20;34.37;102085.22;7257023;19;154068;-55
2022/12/17 21:32:25;;;;;;;;;;;;;;;17.21;34.60;102084.97;7253552;19;154424;-55
2022/12/17 21:34:59;;;;;;;;;;;;;;;17.23;34.58;102084.72;7260237;19;154570;-56
2022/12/17 21:37:26;;;;;;;;;;;;;;;17.23;34.36;102085.56;7253731;19;152957;-56
2022/12/17 21:39:53;;;;;;;;;;;;;;;17.26;34.11;102092.59;7253652;19;153572;-55
2022/12/17 21:44:55;;;;;;;;;;;;;;;17.26;34.52;102085.03;7254022;19;153462;-55
2022/12/17 21:47:22;;;;;;;;;;;;;;;17.26;34.04;102085.03;7251850;19;155270;-56
2022/12/17 21:49:49;;;;;;;;;;;;;;;17.26;34.22;102085.03;7253228;19;153846;-55
2022/12/17 21:52:16;;;;;;;;;;;;;;;17.26;34.20;102090.63;7254121;19;153570;-56
2022/12/17 21:54:43;;;;;;;;;;;;;;;17.27;34.10;102095.09;7253591;19;153908;-56
2022/12/17 21:57:10;;;;;;;;;;;;;;;17.27;34.17;102088.66;7262154;19;154147;-55
2022/12/17 21:59:39;;;;;;;;;;;;;;;17.25;34.20;102086.16;7254754;19;154013;-55
2022/12/17 22:02:06;;;;;;;;;;;;;;;17.25;34.26;102085.31;7256709;19;154357;-55
2022/12/17 22:04:33;;;;;;;;;;;;;;;17.22;34.02;102083.84;7254275;19;154859;-55
2022/12/17 22:07:00;;;;;;;;;;;;;;;17.21;34.32;102079.41;7252492;19;153682;-55
2022/12/17 22:09:34;;;;;;;;;;;;;;;17.20;34.50;102068.47;7253308;19;154839;-56
2022/12/17 22:14:48;;;;;;;;;;;;;;;17.17;34.38;102074.59;7255405;19;153539;-56
2022/12/17 22:17:15;;;;;;;;;;;;;;;17.15;34.10;102083.22;7251789;19;153314;-55
2022/12/17 22:19:42;;;;;;;;;;;;;;;17.13;34.26;102085.41;7259045;19;153244;-55
2022/12/17 22:22:09;;;;;;;;;;;;;;;17.13;34.27;102090.13;7248267;19;157471;-56
2022/12/17 22:24:36;;;;;;;;;;;;;;;17.12;34.17;102096.84;7251096;19;153718;-55
2022/12/17 22:27:03;;;;;;;;;;;;;;;17.10;34.53;102082.28;7250841;19;154331;-55
2022/12/17 22:34:41;;;;;;;;;;;;;;;17.05;34.35;102063.53;7251176;19;153974;-56
2022/12/17 22:37:27;;;;;;;;;;;;;;;17.02;34.40;102060.41;7250758;19;155963;-56
2022/12/17 22:40:16;;;;;;;;;;;;;;;16.99;34.37;102049.75;7253062;19;154120;-56
2022/12/17 22:45:57;;;;;;;;;;;;;;;16.95;34.52;102038.25;7250468;19;153704;-56
2022/12/17 22:48:24;;;;;;;;;;;;;;;16.93;34.29;102036.81;7253795;19;154652;-57
2022/12/17 22:50:53;;;;;;;;;;;;;;;16.91;34.33;102028.69;7246507;19;154246;-56
2022/12/17 22:53:27;;;;;;;;;;;;;;;16.88;34.56;102030.06;7253364;19;153433;-55
2022/12/17 22:55:54;;;;;;;;;;;;;;;16.87;34.48;102028.38;7253017;19;154011;-54
2022/12/17 22:58:22;;;;;;;;;;;;;;;16.84;34.53;102023.31;7251477;19;156100;-55
2022/12/17 23:00:49;;;;;;;;;;;;;;;16.83;34.60;102031.94;7249992;19;154153;-56
2022/12/17 23:03:15;;;;;;;;;;;;;;;16.80;34.50;102024.94;7252571;19;153544;-55
2022/12/17 23:05:42;;;;;;;;;;;;;;;16.77;34.81;102025.44;7255897;19;153585;-55
2022/12/17 23:08:09;;;;;;;;;;;;;;;16.76;34.44;102032.09;7250527;19;154008;-55
2022/12/17 23:10:36;;;;;;;;;;;;;;;16.71;34.75;102029.28;7248045;19;153528;-55
2022/12/17 23:13:03;;;;;;;;;;;;;;;16.70;34.57;102038.72;7251798;19;154098;-55
2022/12/17 23:15:33;;;;;;;;;;;;;;;16.68;34.63;102037.28;7253820;19;153350;-55
2022/12/17 23:18:01;;;;;;;;;;;;;;;16.65;34.66;102041.44;7248970;19;152630;-57
2022/12/17 23:20:30;;;;;;;;;;;;;;;16.63;34.81;102035.25;7249331;19;152960;-55
2022/12/17 23:22:57;;;;;;;;;;;;;;;16.61;34.64;102034.69;7252295;19;153631;-55
2022/12/17 23:25:25;;;;;;;;;;;;;;;16.59;34.74;102028.50;7254667;19;153880;-55
2022/12/17 23:27:52;;;;;;;;;;;;;;;16.58;34.52;102026.00;7251234;19;153546;-55
2022/12/17 23:30:19;;;;;;;;;;;;;;;16.55;34.89;102021.72;7253276;19;154365;-55
2022/12/17 23:32:46;;;;;;;;;;;;;;;16.55;34.57;102018.06;7251877;19;153890;-55
2022/12/17 23:35:13;;;;;;;;;;;;;;;16.54;34.83;102016.38;7250984;19;154912;-55
2022/12/17 23:37:40;;;;;;;;;;;;;;;16.50;34.86;102016.06;7249857;19;153679;-55
2022/12/17 23:40:09;;;;;;;;;;;;;;;16.48;34.86;102011.84;7249482;19;154084;-55
2022/12/17 23:42:36;;;;;;;;;;;;;;;16.46;34.67;102014.88;7249636;19;153772;-55
2022/12/17 23:45:03;;;;;;;;;;;;;;;16.43;34.71;102010.66;7246028;19;153629;-55
2022/12/17 23:47:30;;;;;;;;;;;;;;;16.40;34.76;102024.25;7260645;19;154453;-55
2022/12/17 23:49:57;;;;;;;;;;;;;;;16.39;35.08;102023.44;7249035;19;155303;-55
2022/12/17 23:52:24;;;;;;;;;;;;;;;16.36;34.86;102020.28;7249772;19;153800;-55
2022/12/17 23:54:51;;;;;;;;;;;;;;;16.36;34.99;102025.88;7246100;19;154741;-55
2022/12/17 23:57:18;;;;;;;;;;;;;;;16.32;34.96;102019.09;7250914;19;153997;-55
2022/12/17 23:59:45;;;;;;;;;;;;;;;16.30;34.94;102030.53;7248066;19;153939;-55
